sensor_id;sensor_type;location;lat;lon;timestamp;P1;durP1;ratioP1;P2;durP2;ratioP2
11533;SDS011;5823;50.588;8.462;2023-03-23T00:00:35;0.10;;;0.10;;
11533;SDS011;5823;50.588;8.462;2023-03-23T00:03:01;0.10;;;0.10;;
11533;SDS011;5823;50.588;8.462;2023-03-23T00:05:27;0.10;;;0.10;;
11533;SDS011;5823;50.588;8.462;2023-03-23T00:07:54;0.15;;;0.15;;
11533;SDS011;5823;50.588;8.462;2023-03-23T00:10:21;0.00;;;0.00;;
11533;SDS011;5823;50.588;8.462;2023-03-23T00:12:49;0.00;;;0.00;;
11533;SDS011;5823;50.588;8.462;2023-03-23T00:15:15;0.00;;;0.00;;
11533;SDS011;5823;50.588;8.462;2023-03-23T00:17:43;0.22;;;0.22;;
11533;SDS011;5823;50.588;8.462;2023-03-23T00:20:09;0.00;;;0.00;;
11533;SDS011;5823;50.588;8.462;2023-03-23T00:22:37;0.20;;;0.20;;
11533;SDS011;5823;50.588;8.462;2023-03-23T00:25:04;0.00;;;0.00;;
11533;SDS011;5823;50.588;8.462;2023-03-23T00:27:30;0.10;;;0.10;;
11533;SDS011;5823;50.588;8.462;2023-03-23T00:29:56;0.22;;;0.10;;
11533;SDS011;5823;50.588;8.462;2023-03-23T00:32:23;0.13;;;0.13;;
11533;SDS011;5823;50.588;8.462;2023-03-23T00:34:53;0.00;;;0.00;;
11533;SDS011;5823;50.588;8.462;2023-03-23T00:37:20;0.17;;;0.17;;
11533;SDS011;5823;50.588;8.462;2023-03-23T00:39:46;0.05;;;0.05;;
11533;SDS011;5823;50.588;8.462;2023-03-23T00:42:13;0.10;;;0.10;;
11533;SDS011;5823;50.588;8.462;2023-03-23T00:44:39;0.10;;;0.10;;
11533;SDS011;5823;50.588;8.462;2023-03-23T00:47:06;0.10;;;0.10;;
11533;SDS011;5823;50.588;8.462;2023-03-23T00:49:34;0.00;;;0.00;;
11533;SDS011;5823;50.588;8.462;2023-03-23T00:52:01;0.10;;;0.10;;
11533;SDS011;5823;50.588;8.462;2023-03-23T00:54:28;0.00;;;0.00;;
11533;SDS011;5823;50.588;8.462;2023-03-23T00:56:54;0.10;;;0.10;;
11533;SDS011;5823;50.588;8.462;2023-03-23T00:59:21;0.00;;;0.00;;
11533;SDS011;5823;50.588;8.462;2023-03-23T01:01:48;0.10;;;0.10;;
11533;SDS011;5823;50.588;8.462;2023-03-23T01:04:14;0.10;;;0.10;;
11533;SDS011;5823;50.588;8.462;2023-03-23T01:06:41;0.08;;;0.08;;
11533;SDS011;5823;50.588;8.462;2023-03-23T01:09:10;0.10;;;0.10;;
11533;SDS011;5823;50.588;8.462;2023-03-23T01:11:39;0.10;;;0.10;;
11533;SDS011;5823;50.588;8.462;2023-03-23T01:14:06;0.00;;;0.00;;
11533;SDS011;5823;50.588;8.462;2023-03-23T01:16:32;0.10;;;0.10;;
11533;SDS011;5823;50.588;8.462;2023-03-23T01:18:58;0.05;;;0.05;;
11533;SDS011;5823;50.588;8.462;2023-03-23T01:21:24;0.05;;;0.05;;
11533;SDS011;5823;50.588;8.462;2023-03-23T01:23:51;0.10;;;0.10;;
11533;SDS011;5823;50.588;8.462;2023-03-23T01:26:19;0.10;;;0.10;;
11533;SDS011;5823;50.588;8.462;2023-03-23T01:28:46;0.05;;;0.05;;
11533;SDS011;5823;50.588;8.462;2023-03-23T01:31:13;0.10;;;0.10;;
11533;SDS011;5823;50.588;8.462;2023-03-23T01:33:40;0.10;;;0.10;;
11533;SDS011;5823;50.588;8.462;2023-03-23T01:36:07;0.25;;;0.20;;
11533;SDS011;5823;50.588;8.462;2023-03-23T01:38:34;0.10;;;0.10;;
11533;SDS011;5823;50.588;8.462;2023-03-23T01:41:00;0.10;;;0.10;;
11533;SDS011;5823;50.588;8.462;2023-03-23T01:43:28;0.00;;;0.00;;
11533;SDS011;5823;50.588;8.462;2023-03-23T01:45:54;0.10;;;0.10;;
11533;SDS011;5823;50.588;8.462;2023-03-23T01:48:22;0.10;;;0.10;;
11533;SDS011;5823;50.588;8.462;2023-03-23T01:50:52;0.10;;;0.10;;
11533;SDS011;5823;50.588;8.462;2023-03-23T01:53:21;0.00;;;0.00;;
11533;SDS011;5823;50.588;8.462;2023-03-23T01:55:48;0.10;;;0.10;;
11533;SDS011;5823;50.588;8.462;2023-03-23T01:58:16;0.10;;;0.10;;
11533;SDS011;5823;50.588;8.462;2023-03-23T02:00:44;0.10;;;0.10;;
11533;SDS011;5823;50.588;8.462;2023-03-23T02:03:11;0.10;;;0.10;;
11533;SDS011;5823;50.588;8.462;2023-03-23T02:05:39;0.10;;;0.10;;
11533;SDS011;5823;50.588;8.462;2023-03-23T02:08:06;0.00;;;0.00;;
11533;SDS011;5823;50.588;8.462;2023-03-23T02:10:33;0.00;;;0.00;;
11533;SDS011;5823;50.588;8.462;2023-03-23T02:13:00;0.10;;;0.10;;
11533;SDS011;5823;50.588;8.462;2023-03-23T02:15:28;0.08;;;0.08;;
11533;SDS011;5823;50.588;8.462;2023-03-23T02:18:01;0.00;;;0.00;;
11533;SDS011;5823;50.588;8.462;2023-03-23T02:20:38;0.10;;;0.10;;
11533;SDS011;5823;50.588;8.462;2023-03-23T02:23:14;0.00;;;0.00;;
11533;SDS011;5823;50.588;8.462;2023-03-23T02:25:49;0.00;;;0.00;;
11533;SDS011;5823;50.588;8.462;2023-03-23T02:31:22;0.00;;;0.00;;
11533;SDS011;5823;50.588;8.462;2023-03-23T02:33:55;0.00;;;0.00;;
11533;SDS011;5823;50.588;8.462;2023-03-23T02:36:24;0.10;;;0.10;;
11533;SDS011;5823;50.588;8.462;2023-03-23T02:38:55;0.10;;;0.10;;
11533;SDS011;5823;50.588;8.462;2023-03-23T02:41:24;0.05;;;0.05;;
11533;SDS011;5823;50.588;8.462;2023-03-23T02:43:51;0.10;;;0.10;;
11533;SDS011;5823;50.588;8.462;2023-03-23T02:46:18;0.20;;;0.20;;
11533;SDS011;5823;50.588;8.462;2023-03-23T02:48:46;0.00;;;0.00;;
11533;SDS011;5823;50.588;8.462;2023-03-23T02:51:17;0.10;;;0.10;;
11533;SDS011;5823;50.588;8.462;2023-03-23T02:53:44;0.10;;;0.10;;
11533;SDS011;5823;50.588;8.462;2023-03-23T02:56:11;0.03;;;0.03;;
11533;SDS011;5823;50.588;8.462;2023-03-23T02:58:39;0.25;;;0.10;;
11533;SDS011;5823;50.588;8.462;2023-03-23T03:03:50;0.60;;;0.13;;
11533;SDS011;5823;50.588;8.462;2023-03-23T03:06:21;0.10;;;0.10;;
11533;SDS011;5823;50.588;8.462;2023-03-23T03:08:52;0.00;;;0.00;;
11533;SDS011;5823;50.588;8.462;2023-03-23T03:11:20;0.00;;;0.00;;
11533;SDS011;5823;50.588;8.462;2023-03-23T03:13:52;0.00;;;0.00;;
11533;SDS011;5823;50.588;8.462;2023-03-23T03:16:23;0.00;;;0.00;;
11533;SDS011;5823;50.588;8.462;2023-03-23T03:18:51;0.10;;;0.10;;
11533;SDS011;5823;50.588;8.462;2023-03-23T03:21:22;0.13;;;0.13;;
11533;SDS011;5823;50.588;8.462;2023-03-23T03:23:52;0.10;;;0.10;;
11533;SDS011;5823;50.588;8.462;2023-03-23T03:26:19;0.00;;;0.00;;
11533;SDS011;5823;50.588;8.462;2023-03-23T03:28:47;0.10;;;0.10;;
11533;SDS011;5823;50.588;8.462;2023-03-23T03:31:13;0.10;;;0.10;;
11533;SDS011;5823;50.588;8.462;2023-03-23T03:33:41;0.10;;;0.10;;
11533;SDS011;5823;50.588;8.462;2023-03-23T03:36:07;0.13;;;0.13;;
11533;SDS011;5823;50.588;8.462;2023-03-23T03:38:42;0.00;;;0.00;;
11533;SDS011;5823;50.588;8.462;2023-03-23T03:41:08;0.43;;;0.20;;
11533;SDS011;5823;50.588;8.462;2023-03-23T03:43:35;0.00;;;0.00;;
11533;SDS011;5823;50.588;8.462;2023-03-23T03:46:01;0.03;;;0.03;;
11533;SDS011;5823;50.588;8.462;2023-03-23T03:48:27;0.00;;;0.00;;
11533;SDS011;5823;50.588;8.462;2023-03-23T03:50:53;0.10;;;0.10;;
11533;SDS011;5823;50.588;8.462;2023-03-23T03:53:21;0.05;;;0.05;;
11533;SDS011;5823;50.588;8.462;2023-03-23T03:55:49;0.03;;;0.03;;
11533;SDS011;5823;50.588;8.462;2023-03-23T03:58:15;0.10;;;0.10;;
11533;SDS011;5823;50.588;8.462;2023-03-23T04:00:41;0.00;;;0.00;;
11533;SDS011;5823;50.588;8.462;2023-03-23T04:03:08;0.00;;;0.00;;
11533;SDS011;5823;50.588;8.462;2023-03-23T04:05:34;0.10;;;0.10;;
11533;SDS011;5823;50.588;8.462;2023-03-23T04:08:01;0.13;;;0.13;;
11533;SDS011;5823;50.588;8.462;2023-03-23T04:10:29;0.00;;;0.00;;
11533;SDS011;5823;50.588;8.462;2023-03-23T04:12:57;0.00;;;0.00;;
11533;SDS011;5823;50.588;8.462;2023-03-23T04:15:23;0.10;;;0.10;;
11533;SDS011;5823;50.588;8.462;2023-03-23T04:17:49;0.13;;;0.13;;
11533;SDS011;5823;50.588;8.462;2023-03-23T04:20:16;0.00;;;0.00;;
11533;SDS011;5823;50.588;8.462;2023-03-23T04:22:43;0.13;;;0.13;;
11533;SDS011;5823;50.588;8.462;2023-03-23T04:25:10;0.10;;;0.10;;
11533;SDS011;5823;50.588;8.462;2023-03-23T04:27:37;0.05;;;0.03;;
11533;SDS011;5823;50.588;8.462;2023-03-23T04:30:05;0.10;;;0.10;;
11533;SDS011;5823;50.588;8.462;2023-03-23T04:32:32;0.10;;;0.10;;
11533;SDS011;5823;50.588;8.462;2023-03-23T04:34:58;0.00;;;0.00;;
11533;SDS011;5823;50.588;8.462;2023-03-23T04:37:25;0.00;;;0.00;;
11533;SDS011;5823;50.588;8.462;2023-03-23T04:39:53;0.10;;;0.10;;
11533;SDS011;5823;50.588;8.462;2023-03-23T04:42:25;0.10;;;0.10;;
11533;SDS011;5823;50.588;8.462;2023-03-23T04:44:51;0.10;;;0.10;;
11533;SDS011;5823;50.588;8.462;2023-03-23T04:47:20;0.20;;;0.10;;
11533;SDS011;5823;50.588;8.462;2023-03-23T04:49:46;0.10;;;0.10;;
11533;SDS011;5823;50.588;8.462;2023-03-23T04:52:13;0.10;;;0.10;;
11533;SDS011;5823;50.588;8.462;2023-03-23T04:54:39;0.10;;;0.10;;
11533;SDS011;5823;50.588;8.462;2023-03-23T04:57:06;0.10;;;0.10;;
11533;SDS011;5823;50.588;8.462;2023-03-23T04:59:33;0.20;;;0.20;;
11533;SDS011;5823;50.588;8.462;2023-03-23T05:01:59;0.00;;;0.00;;
11533;SDS011;5823;50.588;8.462;2023-03-23T05:04:27;0.05;;;0.05;;
11533;SDS011;5823;50.588;8.462;2023-03-23T05:06:53;0.30;;;0.30;;
11533;SDS011;5823;50.588;8.462;2023-03-23T05:09:19;0.10;;;0.10;;
11533;SDS011;5823;50.588;8.462;2023-03-23T05:11:46;0.30;;;0.30;;
11533;SDS011;5823;50.588;8.462;2023-03-23T05:14:12;0.10;;;0.08;;
11533;SDS011;5823;50.588;8.462;2023-03-23T05:16:38;0.00;;;0.00;;
11533;SDS011;5823;50.588;8.462;2023-03-23T05:19:05;0.08;;;0.08;;
11533;SDS011;5823;50.588;8.462;2023-03-23T05:21:33;0.00;;;0.00;;
11533;SDS011;5823;50.588;8.462;2023-03-23T05:24:00;0.00;;;0.00;;
11533;SDS011;5823;50.588;8.462;2023-03-23T05:26:26;0.10;;;0.10;;
11533;SDS011;5823;50.588;8.462;2023-03-23T05:28:54;0.20;;;0.20;;
11533;SDS011;5823;50.588;8.462;2023-03-23T05:31:21;0.10;;;0.10;;
11533;SDS011;5823;50.588;8.462;2023-03-23T05:33:48;0.00;;;0.00;;
11533;SDS011;5823;50.588;8.462;2023-03-23T05:36:14;0.10;;;0.10;;
11533;SDS011;5823;50.588;8.462;2023-03-23T05:38:42;0.10;;;0.10;;
11533;SDS011;5823;50.588;8.462;2023-03-23T05:41:10;0.20;;;0.20;;
11533;SDS011;5823;50.588;8.462;2023-03-23T05:43:36;0.20;;;0.20;;
11533;SDS011;5823;50.588;8.462;2023-03-23T05:46:02;0.00;;;0.00;;
11533;SDS011;5823;50.588;8.462;2023-03-23T05:48:29;0.20;;;0.20;;
11533;SDS011;5823;50.588;8.462;2023-03-23T05:50:55;0.10;;;0.10;;
11533;SDS011;5823;50.588;8.462;2023-03-23T05:53:22;0.10;;;0.10;;
11533;SDS011;5823;50.588;8.462;2023-03-23T05:55:50;0.20;;;0.20;;
11533;SDS011;5823;50.588;8.462;2023-03-23T05:58:16;0.10;;;0.10;;
11533;SDS011;5823;50.588;8.462;2023-03-23T06:00:42;0.08;;;0.08;;
11533;SDS011;5823;50.588;8.462;2023-03-23T06:03:10;0.10;;;0.10;;
11533;SDS011;5823;50.588;8.462;2023-03-23T06:05:42;0.10;;;0.10;;
11533;SDS011;5823;50.588;8.462;2023-03-23T06:08:09;0.10;;;0.10;;
11533;SDS011;5823;50.588;8.462;2023-03-23T06:10:35;0.10;;;0.10;;
11533;SDS011;5823;50.588;8.462;2023-03-23T06:13:03;0.10;;;0.10;;
11533;SDS011;5823;50.588;8.462;2023-03-23T06:15:29;0.10;;;0.10;;
11533;SDS011;5823;50.588;8.462;2023-03-23T06:17:57;0.00;;;0.00;;
11533;SDS011;5823;50.588;8.462;2023-03-23T06:20:24;0.00;;;0.00;;
11533;SDS011;5823;50.588;8.462;2023-03-23T06:22:50;0.20;;;0.20;;
11533;SDS011;5823;50.588;8.462;2023-03-23T06:25:17;0.10;;;0.10;;
11533;SDS011;5823;50.588;8.462;2023-03-23T06:27:43;0.05;;;0.05;;
11533;SDS011;5823;50.588;8.462;2023-03-23T06:30:12;0.13;;;0.10;;
11533;SDS011;5823;50.588;8.462;2023-03-23T06:32:39;0.10;;;0.10;;
11533;SDS011;5823;50.588;8.462;2023-03-23T06:35:06;0.10;;;0.10;;
11533;SDS011;5823;50.588;8.462;2023-03-23T06:37:34;0.00;;;0.00;;
11533;SDS011;5823;50.588;8.462;2023-03-23T06:40:01;0.00;;;0.00;;
11533;SDS011;5823;50.588;8.462;2023-03-23T06:42:28;0.08;;;0.08;;
11533;SDS011;5823;50.588;8.462;2023-03-23T06:44:54;0.10;;;0.10;;
11533;SDS011;5823;50.588;8.462;2023-03-23T06:47:23;0.20;;;0.20;;
11533;SDS011;5823;50.588;8.462;2023-03-23T06:49:50;0.22;;;0.10;;
11533;SDS011;5823;50.588;8.462;2023-03-23T06:52:16;0.10;;;0.10;;
11533;SDS011;5823;50.588;8.462;2023-03-23T06:54:42;0.10;;;0.10;;
11533;SDS011;5823;50.588;8.462;2023-03-23T06:57:08;0.20;;;0.20;;
11533;SDS011;5823;50.588;8.462;2023-03-23T06:59:35;0.10;;;0.10;;
11533;SDS011;5823;50.588;8.462;2023-03-23T07:02:01;0.08;;;0.08;;
11533;SDS011;5823;50.588;8.462;2023-03-23T07:04:29;0.30;;;0.30;;
11533;SDS011;5823;50.588;8.462;2023-03-23T07:06:55;0.22;;;0.22;;
11533;SDS011;5823;50.588;8.462;2023-03-23T07:09:21;0.20;;;0.20;;
11533;SDS011;5823;50.588;8.462;2023-03-23T07:11:48;0.20;;;0.20;;
11533;SDS011;5823;50.588;8.462;2023-03-23T07:14:16;0.00;;;0.00;;
11533;SDS011;5823;50.588;8.462;2023-03-23T07:16:42;0.30;;;0.30;;
11533;SDS011;5823;50.588;8.462;2023-03-23T07:19:09;0.10;;;0.10;;
11533;SDS011;5823;50.588;8.462;2023-03-23T07:21:36;0.10;;;0.10;;
11533;SDS011;5823;50.588;8.462;2023-03-23T07:24:03;0.10;;;0.10;;
11533;SDS011;5823;50.588;8.462;2023-03-23T07:26:29;0.20;;;0.20;;
11533;SDS011;5823;50.588;8.462;2023-03-23T07:28:55;0.20;;;0.20;;
11533;SDS011;5823;50.588;8.462;2023-03-23T07:31:21;0.20;;;0.20;;
11533;SDS011;5823;50.588;8.462;2023-03-23T07:33:48;0.35;;;0.20;;
11533;SDS011;5823;50.588;8.462;2023-03-23T07:36:14;0.20;;;0.20;;
11533;SDS011;5823;50.588;8.462;2023-03-23T07:38:42;0.20;;;0.20;;
11533;SDS011;5823;50.588;8.462;2023-03-23T07:41:08;0.28;;;0.28;;
11533;SDS011;5823;50.588;8.462;2023-03-23T07:43:35;0.13;;;0.13;;
11533;SDS011;5823;50.588;8.462;2023-03-23T07:46:01;0.20;;;0.20;;
11533;SDS011;5823;50.588;8.462;2023-03-23T07:48:27;0.10;;;0.10;;
11533;SDS011;5823;50.588;8.462;2023-03-23T07:50:54;0.00;;;0.00;;
11533;SDS011;5823;50.588;8.462;2023-03-23T07:53:20;0.10;;;0.10;;
11533;SDS011;5823;50.588;8.462;2023-03-23T07:55:49;0.10;;;0.10;;
11533;SDS011;5823;50.588;8.462;2023-03-23T07:58:15;0.15;;;0.15;;
11533;SDS011;5823;50.588;8.462;2023-03-23T08:00:44;0.20;;;0.20;;
11533;SDS011;5823;50.588;8.462;2023-03-23T08:03:11;0.10;;;0.10;;
11533;SDS011;5823;50.588;8.462;2023-03-23T08:05:37;0.10;;;0.10;;
11533;SDS011;5823;50.588;8.462;2023-03-23T08:08:03;0.00;;;0.00;;
11533;SDS011;5823;50.588;8.462;2023-03-23T08:10:30;0.10;;;0.05;;
11533;SDS011;5823;50.588;8.462;2023-03-23T08:12:58;0.10;;;0.10;;
11533;SDS011;5823;50.588;8.462;2023-03-23T08:15:24;0.20;;;0.20;;
11533;SDS011;5823;50.588;8.462;2023-03-23T08:17:51;0.20;;;0.20;;
11533;SDS011;5823;50.588;8.462;2023-03-23T08:20:17;0.20;;;0.20;;
11533;SDS011;5823;50.588;8.462;2023-03-23T08:22:45;0.15;;;0.15;;
11533;SDS011;5823;50.588;8.462;2023-03-23T08:25:12;0.03;;;0.03;;
11533;SDS011;5823;50.588;8.462;2023-03-23T08:27:39;0.30;;;0.30;;
11533;SDS011;5823;50.588;8.462;2023-03-23T08:30:10;0.10;;;0.10;;
11533;SDS011;5823;50.588;8.462;2023-03-23T08:32:37;0.10;;;0.10;;
11533;SDS011;5823;50.588;8.462;2023-03-23T08:35:03;0.10;;;0.10;;
11533;SDS011;5823;50.588;8.462;2023-03-23T08:37:30;0.20;;;0.20;;
11533;SDS011;5823;50.588;8.462;2023-03-23T08:39:56;0.00;;;0.00;;
11533;SDS011;5823;50.588;8.462;2023-03-23T08:42:22;0.10;;;0.10;;
11533;SDS011;5823;50.588;8.462;2023-03-23T08:44:49;0.10;;;0.10;;
11533;SDS011;5823;50.588;8.462;2023-03-23T08:47:17;0.10;;;0.10;;
11533;SDS011;5823;50.588;8.462;2023-03-23T08:49:44;0.10;;;0.10;;
11533;SDS011;5823;50.588;8.462;2023-03-23T08:52:11;0.35;;;0.28;;
11533;SDS011;5823;50.588;8.462;2023-03-23T08:54:37;0.20;;;0.20;;
11533;SDS011;5823;50.588;8.462;2023-03-23T08:57:04;0.28;;;0.28;;
11533;SDS011;5823;50.588;8.462;2023-03-23T08:59:30;0.20;;;0.20;;
11533;SDS011;5823;50.588;8.462;2023-03-23T09:01:56;0.17;;;0.17;;
11533;SDS011;5823;50.588;8.462;2023-03-23T09:04:24;0.20;;;0.20;;
11533;SDS011;5823;50.588;8.462;2023-03-23T09:06:51;0.15;;;0.15;;
11533;SDS011;5823;50.588;8.462;2023-03-23T09:09:17;0.10;;;0.10;;
11533;SDS011;5823;50.588;8.462;2023-03-23T09:11:44;0.20;;;0.20;;
11533;SDS011;5823;50.588;8.462;2023-03-23T09:14:10;0.20;;;0.20;;
11533;SDS011;5823;50.588;8.462;2023-03-23T09:16:37;0.08;;;0.08;;
11533;SDS011;5823;50.588;8.462;2023-03-23T09:19:03;0.47;;;0.32;;
11533;SDS011;5823;50.588;8.462;2023-03-23T09:21:31;0.28;;;0.28;;
11533;SDS011;5823;50.588;8.462;2023-03-23T09:23:58;0.20;;;0.20;;
11533;SDS011;5823;50.588;8.462;2023-03-23T09:26:24;0.10;;;0.10;;
11533;SDS011;5823;50.588;8.462;2023-03-23T09:28:51;0.20;;;0.20;;
11533;SDS011;5823;50.588;8.462;2023-03-23T09:31:17;0.10;;;0.10;;
11533;SDS011;5823;50.588;8.462;2023-03-23T09:33:45;0.00;;;0.00;;
11533;SDS011;5823;50.588;8.462;2023-03-23T09:36:11;0.20;;;0.20;;
11533;SDS011;5823;50.588;8.462;2023-03-23T09:38:40;0.10;;;0.10;;
11533;SDS011;5823;50.588;8.462;2023-03-23T09:41:10;0.10;;;0.10;;
11533;SDS011;5823;50.588;8.462;2023-03-23T09:43:41;0.10;;;0.10;;
11533;SDS011;5823;50.588;8.462;2023-03-23T09:46:15;0.20;;;0.20;;
11533;SDS011;5823;50.588;8.462;2023-03-23T09:48:45;0.10;;;0.10;;
11533;SDS011;5823;50.588;8.462;2023-03-23T09:51:21;0.20;;;0.20;;
11533;SDS011;5823;50.588;8.462;2023-03-23T09:53:51;0.13;;;0.13;;
11533;SDS011;5823;50.588;8.462;2023-03-23T09:56:19;0.10;;;0.10;;
11533;SDS011;5823;50.588;8.462;2023-03-23T09:58:49;0.17;;;0.17;;
11533;SDS011;5823;50.588;8.462;2023-03-23T10:01:19;0.10;;;0.10;;
11533;SDS011;5823;50.588;8.462;2023-03-23T10:03:46;0.10;;;0.10;;
11533;SDS011;5823;50.588;8.462;2023-03-23T10:06:13;0.10;;;0.10;;
11533;SDS011;5823;50.588;8.462;2023-03-23T10:08:41;0.00;;;0.00;;
11533;SDS011;5823;50.588;8.462;2023-03-23T10:11:11;0.10;;;0.10;;
11533;SDS011;5823;50.588;8.462;2023-03-23T10:13:54;0.20;;;0.20;;
11533;SDS011;5823;50.588;8.462;2023-03-23T10:16:23;0.20;;;0.20;;
11533;SDS011;5823;50.588;8.462;2023-03-23T10:18:53;0.10;;;0.10;;
11533;SDS011;5823;50.588;8.462;2023-03-23T10:21:21;0.08;;;0.08;;
11533;SDS011;5823;50.588;8.462;2023-03-23T10:23:51;0.20;;;0.17;;
11533;SDS011;5823;50.588;8.462;2023-03-23T10:26:24;0.10;;;0.10;;
11533;SDS011;5823;50.588;8.462;2023-03-23T10:28:51;0.17;;;0.10;;
11533;SDS011;5823;50.588;8.462;2023-03-23T10:31:19;0.00;;;0.00;;
11533;SDS011;5823;50.588;8.462;2023-03-23T10:33:47;0.10;;;0.10;;
11533;SDS011;5823;50.588;8.462;2023-03-23T10:36:15;0.03;;;0.00;;
11533;SDS011;5823;50.588;8.462;2023-03-23T10:38:43;0.20;;;0.20;;
11533;SDS011;5823;50.588;8.462;2023-03-23T10:41:10;0.10;;;0.10;;
11533;SDS011;5823;50.588;8.462;2023-03-23T10:43:38;0.00;;;0.00;;
11533;SDS011;5823;50.588;8.462;2023-03-23T10:46:10;0.00;;;0.00;;
11533;SDS011;5823;50.588;8.462;2023-03-23T10:48:37;0.10;;;0.10;;
11533;SDS011;5823;50.588;8.462;2023-03-23T10:51:05;0.20;;;0.20;;
11533;SDS011;5823;50.588;8.462;2023-03-23T10:53:35;0.10;;;0.10;;
11533;SDS011;5823;50.588;8.462;2023-03-23T10:56:02;0.13;;;0.13;;
11533;SDS011;5823;50.588;8.462;2023-03-23T10:58:29;0.20;;;0.20;;
11533;SDS011;5823;50.588;8.462;2023-03-23T11:00:58;0.00;;;0.00;;
11533;SDS011;5823;50.588;8.462;2023-03-23T11:03:27;0.10;;;0.10;;
11533;SDS011;5823;50.588;8.462;2023-03-23T11:05:57;0.00;;;0.00;;
11533;SDS011;5823;50.588;8.462;2023-03-23T11:08:27;0.10;;;0.10;;
11533;SDS011;5823;50.588;8.462;2023-03-23T11:10:54;0.10;;;0.10;;
11533;SDS011;5823;50.588;8.462;2023-03-23T11:13:21;0.10;;;0.10;;
11533;SDS011;5823;50.588;8.462;2023-03-23T11:15:49;0.00;;;0.00;;
11533;SDS011;5823;50.588;8.462;2023-03-23T11:18:19;1.15;;;0.93;;
11533;SDS011;5823;50.588;8.462;2023-03-23T11:20:48;2.05;;;1.80;;
11533;SDS011;5823;50.588;8.462;2023-03-23T11:23:18;1.67;;;1.58;;
11533;SDS011;5823;50.588;8.462;2023-03-23T11:25:52;1.40;;;1.25;;
11533;SDS011;5823;50.588;8.462;2023-03-23T11:28:19;0.95;;;0.90;;
11533;SDS011;5823;50.588;8.462;2023-03-23T11:30:45;0.68;;;0.60;;
11533;SDS011;5823;50.588;8.462;2023-03-23T11:33:12;0.63;;;0.63;;
11533;SDS011;5823;50.588;8.462;2023-03-23T11:35:42;0.40;;;0.40;;
11533;SDS011;5823;50.588;8.462;2023-03-23T11:40:43;0.17;;;0.17;;
11533;SDS011;5823;50.588;8.462;2023-03-23T11:43:13;0.20;;;0.20;;
11533;SDS011;5823;50.588;8.462;2023-03-23T11:45:40;0.30;;;0.30;;
11533;SDS011;5823;50.588;8.462;2023-03-23T11:48:13;0.10;;;0.10;;
11533;SDS011;5823;50.588;8.462;2023-03-23T11:50:47;0.13;;;0.13;;
11533;SDS011;5823;50.588;8.462;2023-03-23T11:53:15;0.20;;;0.20;;
11533;SDS011;5823;50.588;8.462;2023-03-23T11:55:51;0.10;;;0.10;;
11533;SDS011;5823;50.588;8.462;2023-03-23T11:58:20;0.10;;;0.10;;
11533;SDS011;5823;50.588;8.462;2023-03-23T12:00:47;0.20;;;0.20;;
11533;SDS011;5823;50.588;8.462;2023-03-23T12:03:16;0.17;;;0.17;;
11533;SDS011;5823;50.588;8.462;2023-03-23T12:05:49;0.22;;;0.22;;
11533;SDS011;5823;50.588;8.462;2023-03-23T12:08:22;0.20;;;0.20;;
11533;SDS011;5823;50.588;8.462;2023-03-23T12:10:52;0.20;;;0.20;;
11533;SDS011;5823;50.588;8.462;2023-03-23T12:13:27;0.38;;;0.30;;
11533;SDS011;5823;50.588;8.462;2023-03-23T12:15:56;0.20;;;0.20;;
11533;SDS011;5823;50.588;8.462;2023-03-23T12:18:29;0.22;;;0.22;;
11533;SDS011;5823;50.588;8.462;2023-03-23T12:21:00;0.10;;;0.10;;
11533;SDS011;5823;50.588;8.462;2023-03-23T12:23:29;0.32;;;0.32;;
11533;SDS011;5823;50.588;8.462;2023-03-23T12:26:02;0.20;;;0.20;;
11533;SDS011;5823;50.588;8.462;2023-03-23T12:28:33;0.05;;;0.05;;
11533;SDS011;5823;50.588;8.462;2023-03-23T12:31:06;0.20;;;0.20;;
11533;SDS011;5823;50.588;8.462;2023-03-23T12:33:39;0.20;;;0.20;;
11533;SDS011;5823;50.588;8.462;2023-03-23T12:36:14;0.20;;;0.20;;
11533;SDS011;5823;50.588;8.462;2023-03-23T12:38:48;0.40;;;0.40;;
11533;SDS011;5823;50.588;8.462;2023-03-23T12:41:16;0.40;;;0.40;;
11533;SDS011;5823;50.588;8.462;2023-03-23T12:43:46;1.13;;;0.88;;
11533;SDS011;5823;50.588;8.462;2023-03-23T12:46:18;1.05;;;0.70;;
11533;SDS011;5823;50.588;8.462;2023-03-23T12:48:48;0.95;;;0.50;;
11533;SDS011;5823;50.588;8.462;2023-03-23T12:51:18;0.60;;;0.52;;
11533;SDS011;5823;50.588;8.462;2023-03-23T12:53:49;0.50;;;0.50;;
11533;SDS011;5823;50.588;8.462;2023-03-23T12:56:17;0.52;;;0.50;;
11533;SDS011;5823;50.588;8.462;2023-03-23T12:58:46;0.52;;;0.45;;
11533;SDS011;5823;50.588;8.462;2023-03-23T13:01:14;1.15;;;0.77;;
11533;SDS011;5823;50.588;8.462;2023-03-23T13:03:44;0.40;;;0.38;;
11533;SDS011;5823;50.588;8.462;2023-03-23T13:06:12;0.80;;;0.80;;
11533;SDS011;5823;50.588;8.462;2023-03-23T13:08:44;1.23;;;0.85;;
11533;SDS011;5823;50.588;8.462;2023-03-23T13:11:14;0.52;;;0.50;;
11533;SDS011;5823;50.588;8.462;2023-03-23T13:13:44;0.43;;;0.30;;
11533;SDS011;5823;50.588;8.462;2023-03-23T13:16:13;0.40;;;0.40;;
11533;SDS011;5823;50.588;8.462;2023-03-23T13:18:42;0.20;;;0.20;;
11533;SDS011;5823;50.588;8.462;2023-03-23T13:21:13;0.30;;;0.30;;
11533;SDS011;5823;50.588;8.462;2023-03-23T13:23:42;0.30;;;0.30;;
11533;SDS011;5823;50.588;8.462;2023-03-23T13:26:11;0.43;;;0.43;;
11533;SDS011;5823;50.588;8.462;2023-03-23T13:28:46;0.20;;;0.20;;
11533;SDS011;5823;50.588;8.462;2023-03-23T13:31:13;0.20;;;0.20;;
11533;SDS011;5823;50.588;8.462;2023-03-23T13:33:45;0.20;;;0.20;;
11533;SDS011;5823;50.588;8.462;2023-03-23T13:36:12;0.20;;;0.20;;
11533;SDS011;5823;50.588;8.462;2023-03-23T13:38:39;0.20;;;0.20;;
11533;SDS011;5823;50.588;8.462;2023-03-23T13:41:13;0.32;;;0.30;;
11533;SDS011;5823;50.588;8.462;2023-03-23T13:43:40;0.30;;;0.30;;
11533;SDS011;5823;50.588;8.462;2023-03-23T13:46:12;0.20;;;0.20;;
11533;SDS011;5823;50.588;8.462;2023-03-23T13:48:40;0.20;;;0.20;;
11533;SDS011;5823;50.588;8.462;2023-03-23T13:51:21;0.20;;;0.20;;
11533;SDS011;5823;50.588;8.462;2023-03-23T13:53:49;0.30;;;0.30;;
11533;SDS011;5823;50.588;8.462;2023-03-23T13:56:19;0.17;;;0.17;;
11533;SDS011;5823;50.588;8.462;2023-03-23T13:58:47;0.25;;;0.20;;
11533;SDS011;5823;50.588;8.462;2023-03-23T14:01:15;0.13;;;0.13;;
11533;SDS011;5823;50.588;8.462;2023-03-23T14:03:42;0.43;;;0.30;;
11533;SDS011;5823;50.588;8.462;2023-03-23T14:06:12;0.20;;;0.20;;
11533;SDS011;5823;50.588;8.462;2023-03-23T14:08:40;0.40;;;0.40;;
11533;SDS011;5823;50.588;8.462;2023-03-23T14:11:10;0.32;;;0.32;;
11533;SDS011;5823;50.588;8.462;2023-03-23T14:13:41;0.40;;;0.40;;
11533;SDS011;5823;50.588;8.462;2023-03-23T14:16:13;0.30;;;0.30;;
11533;SDS011;5823;50.588;8.462;2023-03-23T14:18:41;0.22;;;0.13;;
11533;SDS011;5823;50.588;8.462;2023-03-23T14:21:13;0.20;;;0.20;;
11533;SDS011;5823;50.588;8.462;2023-03-23T14:23:40;0.50;;;0.50;;
11533;SDS011;5823;50.588;8.462;2023-03-23T14:26:09;0.45;;;0.45;;
11533;SDS011;5823;50.588;8.462;2023-03-23T14:28:37;0.17;;;0.17;;
11533;SDS011;5823;50.588;8.462;2023-03-23T14:31:05;0.50;;;0.50;;
11533;SDS011;5823;50.588;8.462;2023-03-23T14:33:39;0.63;;;0.63;;
11533;SDS011;5823;50.588;8.462;2023-03-23T14:36:07;0.30;;;0.30;;
11533;SDS011;5823;50.588;8.462;2023-03-23T14:38:33;0.20;;;0.20;;
11533;SDS011;5823;50.588;8.462;2023-03-23T14:41:00;0.20;;;0.20;;
11533;SDS011;5823;50.588;8.462;2023-03-23T14:43:27;0.28;;;0.28;;
11533;SDS011;5823;50.588;8.462;2023-03-23T14:45:54;0.20;;;0.20;;
11533;SDS011;5823;50.588;8.462;2023-03-23T14:48:22;0.10;;;0.10;;
11533;SDS011;5823;50.588;8.462;2023-03-23T14:50:49;0.15;;;0.15;;
11533;SDS011;5823;50.588;8.462;2023-03-23T14:53:16;0.10;;;0.10;;
11533;SDS011;5823;50.588;8.462;2023-03-23T14:55:45;0.00;;;0.00;;
11533;SDS011;5823;50.588;8.462;2023-03-23T14:58:12;0.10;;;0.10;;
11533;SDS011;5823;50.588;8.462;2023-03-23T15:00:39;0.03;;;0.03;;
11533;SDS011;5823;50.588;8.462;2023-03-23T15:03:09;0.10;;;0.10;;
11533;SDS011;5823;50.588;8.462;2023-03-23T15:05:39;0.00;;;0.00;;
11533;SDS011;5823;50.588;8.462;2023-03-23T15:08:07;0.10;;;0.10;;
11533;SDS011;5823;50.588;8.462;2023-03-23T15:10:37;0.10;;;0.10;;
11533;SDS011;5823;50.588;8.462;2023-03-23T15:13:04;0.10;;;0.10;;